EXS28C EDDH-EGBB
Flight info
| Callsign | EXS28C |
|---|---|
| Flight time | N/A |
| Altitude | 38000 |
| Route | WSN5C/05 WSN N125 ITMIZ DCT RAVLO Y70 VEGUS |
| Aircraft | B738/M-SDE2E3FGHIRWXY/LB1 |
Departure
| Time | 2026-04-20 18:52 |
|---|---|
| Airport | Hamburg Helmut Schmidt Airport (EDDH) |
Arrival
| Time | N/A |
|---|---|
| Airport | Birmingham Airport (EGBB) |
| Time | Latitude | Longitude | Altitude | Speed | Heading |
|---|---|---|---|---|---|
| 2026-04-20 18:04 | 53.63113 | 10.00367 | 50 ft | 0 kts | 86° |
| 2026-04-20 18:12 | 53.63113 | 10.00366 | 50 ft | 0 kts | 86° |
| 2026-04-20 18:28 | 53.63113 | 10.00365 | 50 ft | 0 kts | 86° |
| 2026-04-20 18:36 | 53.63112 | 10.00364 | 50 ft | 1 kts | 86° |
| 2026-04-20 18:36 | 53.63112 | 10.00323 | 44 ft | 4 kts | 94° |
| 2026-04-20 18:36 | 53.63115 | 10.00279 | 47 ft | 4 kts | 105° |
| 2026-04-20 18:37 | 53.63124 | 10.00237 | 47 ft | 4 kts | 121° |
| 2026-04-20 18:37 | 53.63138 | 10.00207 | 46 ft | 4 kts | 141° |
| 2026-04-20 18:37 | 53.63155 | 10.00189 | 46 ft | 4 kts | 166° |
| 2026-04-20 18:37 | 53.63164 | 10.00186 | 47 ft | 0 kts | 176° |
| 2026-04-20 18:40 | 53.63162 | 10.00186 | 47 ft | 2 kts | 175° |
| 2026-04-20 18:40 | 53.63131 | 10.00190 | 48 ft | 6 kts | 175° |
| 2026-04-20 18:41 | 53.63089 | 10.00192 | 47 ft | 6 kts | 188° |
| 2026-04-20 18:41 | 53.63051 | 10.00165 | 50 ft | 6 kts | 210° |
| 2026-04-20 18:41 | 53.63016 | 10.00130 | 48 ft | 6 kts | 213° |
| 2026-04-20 18:41 | 53.62982 | 10.00092 | 49 ft | 6 kts | 214° |
| 2026-04-20 18:42 | 53.62951 | 10.00054 | 49 ft | 5 kts | 216° |
| 2026-04-20 18:42 | 53.62917 | 10.00033 | 49 ft | 5 kts | 175° |
| 2026-04-20 18:42 | 53.62883 | 10.00038 | 49 ft | 5 kts | 195° |
| 2026-04-20 18:42 | 53.62851 | 10.00009 | 46 ft | 5 kts | 210° |
| 2026-04-20 18:43 | 53.62821 | 9.99979 | 46 ft | 5 kts | 211° |
| 2026-04-20 18:43 | 53.62791 | 9.99948 | 49 ft | 5 kts | 211° |
| 2026-04-20 18:43 | 53.62757 | 9.99916 | 49 ft | 6 kts | 207° |
| 2026-04-20 18:43 | 53.62713 | 9.99877 | 46 ft | 8 kts | 207° |
| 2026-04-20 18:44 | 53.62668 | 9.99832 | 47 ft | 7 kts | 220° |
| 2026-04-20 18:44 | 53.62641 | 9.99759 | 49 ft | 7 kts | 253° |
| 2026-04-20 18:44 | 53.62630 | 9.99678 | 49 ft | 7 kts | 258° |
| 2026-04-20 18:44 | 53.62620 | 9.99600 | 47 ft | 7 kts | 258° |
| 2026-04-20 18:45 | 53.62611 | 9.99522 | 49 ft | 7 kts | 260° |
| 2026-04-20 18:45 | 53.62600 | 9.99421 | 50 ft | 11 kts | 260° |
| 2026-04-20 18:45 | 53.62583 | 9.99257 | 50 ft | 17 kts | 259° |
| 2026-04-20 18:45 | 53.62561 | 9.99064 | 50 ft | 17 kts | 259° |
| 2026-04-20 18:46 | 53.62539 | 9.98874 | 50 ft | 16 kts | 259° |
| 2026-04-20 18:46 | 53.62517 | 9.98687 | 50 ft | 17 kts | 259° |
| 2026-04-20 18:46 | 53.62495 | 9.98500 | 50 ft | 16 kts | 258° |
| 2026-04-20 18:46 | 53.62481 | 9.98382 | 50 ft | 6 kts | 259° |
| 2026-04-20 18:47 | 53.62477 | 9.98340 | 47 ft | 3 kts | 259° |
| 2026-04-20 18:47 | 53.62475 | 9.98325 | 48 ft | 0 kts | 259° |
| 2026-04-20 18:47 | 53.62474 | 9.98316 | 50 ft | 4 kts | 259° |
| 2026-04-20 18:47 | 53.62464 | 9.98231 | 49 ft | 9 kts | 259° |
| 2026-04-20 18:48 | 53.62440 | 9.98121 | 49 ft | 12 kts | 241° |
| 2026-04-20 18:48 | 53.62381 | 9.97991 | 49 ft | 15 kts | 229° |
| 2026-04-20 18:48 | 53.62315 | 9.97859 | 49 ft | 14 kts | 230° |
| 2026-04-20 18:48 | 53.62254 | 9.97736 | 49 ft | 13 kts | 231° |
| 2026-04-20 18:49 | 53.62198 | 9.97619 | 49 ft | 12 kts | 232° |
| 2026-04-20 18:49 | 53.62175 | 9.97534 | 47 ft | 8 kts | 269° |
| 2026-04-20 18:49 | 53.62195 | 9.97438 | 48 ft | 11 kts | 303° |
| 2026-04-20 18:49 | 53.62267 | 9.97351 | 48 ft | 14 kts | 344° |
| 2026-04-20 18:50 | 53.62326 | 9.97382 | 46 ft | 0 kts | 51° |
| 2026-04-20 18:51 | 53.62433 | 9.97601 | 47 ft | 65 kts | 50° |
| 2026-04-20 18:51 | 53.62719 | 9.98178 | 50 ft | 120 kts | 49° |
| 2026-04-20 18:51 | 53.63296 | 9.99380 | 361 ft | 155 kts | 51° |
| 2026-04-20 18:52 | 53.63914 | 10.00686 | 1716 ft | 134 kts | 53° |
| 2026-04-20 18:52 | 53.64544 | 10.01949 | 2368 ft | 153 kts | 54° |
| 2026-04-20 18:52 | 53.65300 | 10.03475 | 2664 ft | 182 kts | 54° |
| 2026-04-20 18:52 | 53.66144 | 10.05180 | 3027 ft | 200 kts | 53° |
| 2026-04-20 18:53 | 53.67087 | 10.07096 | 3231 ft | 225 kts | 53° |
| 2026-04-20 18:53 | 53.68279 | 10.08985 | 3758 ft | 243 kts | 32° |
| 2026-04-20 18:53 | 53.69917 | 10.09702 | 4636 ft | 254 kts | 4° |
| 2026-04-20 18:53 | 53.71649 | 10.08911 | 5461 ft | 269 kts | 332° |
| 2026-04-20 18:54 | 53.72928 | 10.06521 | 6264 ft | 283 kts | 301° |
| 2026-04-20 18:54 | 53.73807 | 10.03505 | 7078 ft | 288 kts | 298° |
| 2026-04-20 18:54 | 53.74669 | 10.00398 | 7877 ft | 294 kts | 294° |
| 2026-04-20 18:54 | 53.74974 | 9.97003 | 8689 ft | 301 kts | 264° |
| 2026-04-20 18:55 | 53.74426 | 9.93599 | 9602 ft | 303 kts | 247° |
| 2026-04-20 18:55 | 53.73593 | 9.90282 | 10453 ft | 307 kts | 245° |
| 2026-04-20 18:55 | 53.72716 | 9.86953 | 11278 ft | 311 kts | 245° |
| 2026-04-20 18:55 | 53.71841 | 9.83625 | 12130 ft | 315 kts | 245° |
| 2026-04-20 18:56 | 53.70953 | 9.80212 | 13035 ft | 319 kts | 246° |
| 2026-04-20 18:56 | 53.70064 | 9.76759 | 13939 ft | 323 kts | 246° |
| 2026-04-20 18:56 | 53.69167 | 9.73258 | 14778 ft | 327 kts | 246° |
| 2026-04-20 18:56 | 53.68264 | 9.69715 | 15642 ft | 330 kts | 247° |
| 2026-04-20 18:57 | 53.67353 | 9.66140 | 16507 ft | 333 kts | 247° |
| 2026-04-20 18:57 | 53.66438 | 9.62559 | 17357 ft | 337 kts | 247° |
| 2026-04-20 18:57 | 53.65501 | 9.58902 | 18219 ft | 341 kts | 246° |
| 2026-04-20 18:57 | 53.64350 | 9.55372 | 18978 ft | 346 kts | 236° |
| 2026-04-20 18:58 | 53.62930 | 9.52046 | 19715 ft | 350 kts | 232° |
| 2026-04-20 18:58 | 53.61421 | 9.48707 | 20039 ft | 369 kts | 232° |
| 2026-04-20 18:58 | 53.59841 | 9.45193 | 20288 ft | 387 kts | 233° |
| 2026-04-20 18:58 | 53.58209 | 9.41493 | 20855 ft | 395 kts | 233° |
| 2026-04-20 18:59 | 53.56576 | 9.37729 | 21578 ft | 398 kts | 233° |
| 2026-04-20 18:59 | 53.54937 | 9.33927 | 22295 ft | 401 kts | 233° |
| 2026-04-20 18:59 | 53.53294 | 9.30117 | 23010 ft | 404 kts | 233° |
| 2026-04-20 18:59 | 53.51647 | 9.26310 | 23663 ft | 409 kts | 233° |
| 2026-04-20 19:00 | 53.49962 | 9.22415 | 24217 ft | 413 kts | 234° |
| 2026-04-20 19:00 | 53.48539 | 9.18192 | 24748 ft | 417 kts | 246° |
| 2026-04-20 19:00 | 53.47431 | 9.13675 | 25345 ft | 419 kts | 248° |
| 2026-04-20 19:00 | 53.46371 | 9.09166 | 25884 ft | 422 kts | 249° |
| 2026-04-20 19:01 | 53.45291 | 9.04553 | 26413 ft | 425 kts | 249° |
| 2026-04-20 19:01 | 53.44194 | 8.99920 | 26932 ft | 428 kts | 248° |
| 2026-04-20 19:01 | 53.43076 | 8.95255 | 27449 ft | 431 kts | 248° |
| 2026-04-20 19:01 | 53.41955 | 8.90633 | 27943 ft | 434 kts | 248° |
| 2026-04-20 19:02 | 53.40801 | 8.85915 | 28460 ft | 437 kts | 248° |
| 2026-04-20 19:02 | 53.39640 | 8.81195 | 28995 ft | 439 kts | 248° |
| 2026-04-20 19:02 | 53.38861 | 8.78039 | 29306 ft | 441 kts | 248° |
| 2026-04-20 19:02 | 53.37297 | 8.71715 | 29901 ft | 445 kts | 248° |
| 2026-04-20 19:03 | 53.36105 | 8.66907 | 30328 ft | 448 kts | 248° |
| 2026-04-20 19:03 | 53.35310 | 8.63707 | 30569 ft | 450 kts | 248° |
| 2026-04-20 19:03 | 53.34104 | 8.58859 | 30930 ft | 452 kts | 248° |
| 2026-04-20 19:03 | 53.32890 | 8.53991 | 31294 ft | 454 kts | 248° |
| 2026-04-20 19:04 | 53.31670 | 8.49104 | 31636 ft | 456 kts | 248° |
| 2026-04-20 19:04 | 53.30039 | 8.42593 | 32069 ft | 460 kts | 247° |
| 2026-04-20 19:04 | 53.29200 | 8.39251 | 32274 ft | 462 kts | 247° |
| 2026-04-20 19:04 | 53.27969 | 8.34355 | 32581 ft | 464 kts | 247° |
| 2026-04-20 19:05 | 53.26712 | 8.29366 | 32895 ft | 466 kts | 247° |
| 2026-04-20 19:05 | 53.25447 | 8.24360 | 33155 ft | 469 kts | 247° |
| 2026-04-20 19:05 | 53.24173 | 8.19327 | 33440 ft | 471 kts | 247° |
| 2026-04-20 19:05 | 53.22892 | 8.14279 | 33744 ft | 473 kts | 247° |
| 2026-04-20 19:06 | 53.21602 | 8.09207 | 33942 ft | 477 kts | 247° |
| 2026-04-20 19:06 | 53.20304 | 8.04111 | 34273 ft | 477 kts | 247° |
| 2026-04-20 19:06 | 53.19003 | 7.99019 | 34465 ft | 479 kts | 247° |
| 2026-04-20 19:06 | 53.17689 | 7.93885 | 34564 ft | 483 kts | 247° |
| 2026-04-20 19:07 | 53.16388 | 7.88814 | 34834 ft | 481 kts | 247° |
| 2026-04-20 19:07 | 53.15066 | 7.83670 | 35048 ft | 481 kts | 247° |
| 2026-04-20 19:07 | 53.13746 | 7.78543 | 35268 ft | 481 kts | 247° |
| 2026-04-20 19:07 | 53.12433 | 7.73463 | 35838 ft | 472 kts | 247° |
| 2026-04-20 19:08 | 53.11232 | 7.68403 | 36446 ft | 463 kts | 254° |
| 2026-04-20 19:08 | 53.10187 | 7.58077 | 37445 ft | 450 kts | 269° |
| 2026-04-20 19:08 | 53.10077 | 7.52883 | 37760 ft | 450 kts | 270° |
| 2026-04-20 19:09 | 53.09983 | 7.47654 | 37969 ft | 452 kts | 270° |
| 2026-04-20 19:09 | 53.09886 | 7.42415 | 38214 ft | 452 kts | 269° |
| 2026-04-20 19:09 | 53.09781 | 7.37168 | 38219 ft | 456 kts | 269° |
| 2026-04-20 19:10 | 53.09537 | 7.26626 | 38238 ft | 458 kts | 269° |
| 2026-04-20 19:10 | 53.09262 | 7.16022 | 38252 ft | 459 kts | 269° |
| 2026-04-20 19:11 | 53.08967 | 7.05387 | 38252 ft | 459 kts | 269° |
| 2026-04-20 19:11 | 53.08666 | 6.94802 | 38240 ft | 459 kts | 269° |
| 2026-04-20 19:12 | 53.08357 | 6.84158 | 38247 ft | 459 kts | 269° |
| 2026-04-20 19:12 | 53.08041 | 6.73618 | 38239 ft | 459 kts | 268° |
| 2026-04-20 19:13 | 53.07718 | 6.63000 | 38238 ft | 458 kts | 269° |
| 2026-04-20 19:13 | 53.07383 | 6.52470 | 38240 ft | 457 kts | 268° |
| 2026-04-20 19:14 | 53.07037 | 6.41884 | 38249 ft | 457 kts | 268° |
| 2026-04-20 19:14 | 53.06684 | 6.31334 | 38250 ft | 456 kts | 268° |
| 2026-04-20 19:15 | 53.06323 | 6.20837 | 38253 ft | 456 kts | 268° |
| 2026-04-20 19:15 | 53.05952 | 6.10304 | 38258 ft | 456 kts | 268° |
| 2026-04-20 19:16 | 53.05574 | 5.99838 | 38262 ft | 455 kts | 268° |
| 2026-04-20 19:16 | 53.05184 | 5.89320 | 38264 ft | 455 kts | 268° |
| 2026-04-20 19:17 | 53.04785 | 5.78812 | 38266 ft | 455 kts | 268° |
| 2026-04-20 19:17 | 53.04378 | 5.68311 | 38267 ft | 455 kts | 268° |
| 2026-04-20 19:18 | 53.03961 | 5.57823 | 38260 ft | 455 kts | 268° |
| 2026-04-20 19:18 | 53.03540 | 5.47388 | 38267 ft | 454 kts | 268° |
| 2026-04-20 19:19 | 53.03105 | 5.36904 | 38268 ft | 454 kts | 268° |
| 2026-04-20 19:19 | 53.02660 | 5.26494 | 38259 ft | 453 kts | 268° |
| 2026-04-20 19:20 | 53.02206 | 5.16036 | 38276 ft | 452 kts | 268° |
| 2026-04-20 19:20 | 53.01747 | 5.05600 | 38255 ft | 452 kts | 267° |
| 2026-04-20 19:21 | 53.01280 | 4.95182 | 38272 ft | 451 kts | 267° |
| 2026-04-20 19:21 | 53.00808 | 4.84849 | 38266 ft | 452 kts | 267° |
| 2026-04-20 19:22 | 53.00320 | 4.74450 | 38273 ft | 451 kts | 267° |
| 2026-04-20 19:22 | 52.99824 | 4.64046 | 38274 ft | 452 kts | 267° |
| 2026-04-20 19:23 | 52.99316 | 4.53610 | 38276 ft | 452 kts | 267° |
| 2026-04-20 19:23 | 52.98802 | 4.43199 | 38281 ft | 453 kts | 268° |
| 2026-04-20 19:24 | 52.98280 | 4.32826 | 38278 ft | 453 kts | 267° |
| 2026-04-20 19:24 | 52.97745 | 4.22382 | 38285 ft | 453 kts | 266° |
| 2026-04-20 19:25 | 52.97206 | 4.12015 | 38282 ft | 453 kts | 266° |
| 2026-04-20 19:25 | 52.96651 | 4.01553 | 38282 ft | 453 kts | 266° |
| 2026-04-20 19:26 | 52.96092 | 3.91183 | 38279 ft | 453 kts | 267° |
| 2026-04-20 19:26 | 52.95520 | 3.80748 | 38285 ft | 452 kts | 267° |
| 2026-04-20 19:27 | 52.95586 | 3.70441 | 38309 ft | 448 kts | 278° |
| 2026-04-20 19:27 | 52.96328 | 3.60171 | 38292 ft | 448 kts | 279° |
| 2026-04-20 19:28 | 52.97062 | 3.49871 | 38292 ft | 448 kts | 278° |
| 2026-04-20 19:28 | 52.97732 | 3.39647 | 38277 ft | 448 kts | 277° |
| 2026-04-20 19:29 | 52.98380 | 3.29333 | 38280 ft | 448 kts | 278° |
| 2026-04-20 19:29 | 52.99012 | 3.19077 | 38278 ft | 448 kts | 277° |
| 2026-04-20 19:30 | 52.99636 | 3.08744 | 38283 ft | 449 kts | 277° |
| 2026-04-20 19:30 | 53.00253 | 2.98419 | 38300 ft | 448 kts | 277° |
| 2026-04-20 19:31 | 53.00857 | 2.88161 | 38286 ft | 449 kts | 277° |
| 2026-04-20 19:31 | 53.01458 | 2.77827 | 38298 ft | 448 kts | 277° |
| 2026-04-20 19:32 | 53.02049 | 2.67502 | 38301 ft | 448 kts | 277° |
| 2026-04-20 19:32 | 53.02627 | 2.57238 | 38312 ft | 448 kts | 277° |
| 2026-04-20 19:33 | 53.03200 | 2.46908 | 38303 ft | 448 kts | 277° |
| 2026-04-20 19:33 | 53.03766 | 2.36575 | 38295 ft | 448 kts | 276° |
| 2026-04-20 19:34 | 53.04318 | 2.26283 | 38307 ft | 449 kts | 277° |
| 2026-04-20 19:34 | 53.04866 | 2.15937 | 38309 ft | 448 kts | 276° |
| 2026-04-20 19:35 | 53.05558 | 2.05684 | 38313 ft | 447 kts | 282° |
| 2026-04-20 19:35 | 53.06810 | 1.95549 | 38312 ft | 446 kts | 283° |
| 2026-04-20 19:36 | 53.08109 | 1.85496 | 38316 ft | 447 kts | 283° |
| 2026-04-20 19:36 | 53.09373 | 1.75353 | 38324 ft | 447 kts | 283° |
| 2026-04-20 19:37 | 53.10600 | 1.65196 | 38318 ft | 447 kts | 282° |